Phoenix, Arizona
Traffic Map
Current Weather Conditions
Phoenix, Arizona
Few Clouds
Few Clouds
66°
Feels Like: 66°
Wind Chill: 66° Ceiling: Unl
Heat Index: 66° Visibility: 10mi
Dew Point: Wind: 10mph
Humidity: 11% Direction: 280° (W)
Pressure: 30.18in Gusts: 0mph
Raw Report DataKPHX 250151Z 28009KT 10SM FEW250 19/M13 A3018 RMK AO2 SLP212 T01891128
Traffic Incident Summary
Active as of:
Severity:
Category:
InformationThere was an issue retrieving the traffic information for this location. Please try a different location or try again shortly.
Advertisements
Track Severe Weather on mobile